Terminal Aerodrome Forecast
Issued by NWS Wilmington, NC

Current Version | Previous Version | Graphics & Text | Print | Product List | Glossary Off
Versions: 1 2 3 4 5 6 7 8 9 10 11 12 13 14 15

000
FTUS42 KILM 290541
TAFMYR
TAF
KMYR 290541Z 2906/3006 05006KT P6SM VCSH SCT020 BKN060
     FM290800 04006KT P6SM SCT015 BKN080
     FM291400 08008KT P6SM VCSH SCT020 BKN035 PROB30 2917/2923 3SM
      -TSRA BKN025CB
     FM300300 05004KT P6SM VCSH SCT020 BKN100=

USA.gov is the U.S. government's official web portal to all federal, state and local government web resources and services.